Alida, Minnesota
Current Conditions -  °F | °C
As of 2:54 PM on Sunday 21 Dec 2014 (Local Time) from KBJI Reporting Station
Haze Haze  
Wind Chill: 22°   Ceiling: 600
Heat Index: 31°   Visibility: 5mi
Dew Point: 30°   Wind: 10mph
Humidity: 95%   Direction: 170°S
Pressure: 29.64"   Gusts: NA
Location:  47.4609°N, 95.2384°W
Report Text: KBJI 212054Z AUTO 17009KT 5SM BR OVC006 00/M01 A2964 RMK AO2 T10051012
Loading
Personal Weather Stations






























Interactive Weather Map New forecast layout! Learn more

10-Day Weather Forecast

Advertisements
Track Severe Weather on mobile